createdAt,value
2023-05-10T00:02:05.213Z,100862.84
2023-05-10T00:04:12.633Z,100858.65
2023-05-10T00:06:19.673Z,100859
2023-05-10T00:08:26.109Z,100857.13
2023-05-10T00:10:32.790Z,100859.42
2023-05-10T00:12:40.115Z,100857.03
2023-05-10T00:14:47.120Z,100859.13
2023-05-10T00:16:53.685Z,100854.95
2023-05-10T00:19:03.016Z,100853.41
2023-05-10T00:21:11.241Z,100851.91
2023-05-10T00:23:18.278Z,100852.48
2023-05-10T00:25:24.659Z,100849.32
2023-05-10T00:27:31.505Z,100843.29
2023-05-10T00:29:38.342Z,100845.11
2023-05-10T00:31:46.569Z,100845.03
2023-05-10T00:33:53.367Z,100843.02
2023-05-10T00:36:00.467Z,100848.17
2023-05-10T00:38:08.422Z,100846.81
2023-05-10T00:40:15.141Z,100845.03
2023-05-10T00:42:22.971Z,100843.88
2023-05-10T00:44:29.550Z,100839.3
2023-05-10T00:46:36.689Z,100839.58
2023-05-10T00:48:43.358Z,100842.2
2023-05-10T00:50:50.177Z,100839.67
2023-05-10T00:52:57.398Z,100839.31
2023-05-10T00:55:07.138Z,100833.96
2023-05-10T00:57:13.927Z,100836.48
2023-05-10T00:59:20.846Z,100831.5
2023-05-10T01:01:27.786Z,100834.27
2023-05-10T01:03:35.082Z,100831.99
2023-05-10T01:05:42.129Z,100831.09
2023-05-10T01:07:48.708Z,100827.66
2023-05-10T01:09:55.373Z,100828.64
2023-05-10T01:12:02.209Z,100828.58
2023-05-10T01:14:10.052Z,100824.82
2023-05-10T01:16:17.987Z,100828.15
2023-05-10T01:18:24.687Z,100823.7
2023-05-10T01:20:31.759Z,100829.82
2023-05-10T01:22:38.433Z,100829.58
2023-05-10T01:24:45.532Z,100833.23
2023-05-10T01:26:53.608Z,100831.09
2023-05-10T01:29:00.725Z,100829.06
2023-05-10T01:31:07.527Z,100831.35
2023-05-10T01:33:13.890Z,100835.34
2023-05-10T01:35:20.269Z,100836.3
2023-05-10T01:37:27.474Z,100836.48
2023-05-10T01:39:34.567Z,100836.36
2023-05-10T01:41:42.381Z,100832.61
2023-05-10T01:43:48.978Z,100836.34
2023-05-10T01:45:55.423Z,100835.63
2023-05-10T01:48:02.599Z,100837.23
2023-05-10T01:50:09.689Z,100836.17
2023-05-10T01:52:16.023Z,100831.91
2023-05-10T01:54:23.277Z,100829.96
2023-05-10T01:56:30.180Z,100833.67
2023-05-10T01:58:36.356Z,100831.48
2023-05-10T02:00:43.458Z,100832.44
2023-05-10T02:02:50.279Z,100832.59
2023-05-10T02:04:59.566Z,100828.26
2023-05-10T02:07:06.207Z,100834.34
2023-05-10T02:09:12.344Z,100832.91
2023-05-10T02:11:19.713Z,100834.17
2023-05-10T02:13:26.472Z,100835.3
2023-05-10T02:15:33.346Z,100834.23
2023-05-10T02:17:41.487Z,100828.18
2023-05-10T02:19:48.273Z,100826.6
2023-05-10T02:21:55.619Z,100824.61
2023-05-10T02:24:02.159Z,100824.22
2023-05-10T02:26:08.836Z,100825.64
2023-05-10T02:28:16.005Z,100828.84
2023-05-10T02:30:22.485Z,100826.94
2023-05-10T02:32:29.465Z,100825.3
2023-05-10T02:34:36.735Z,100822.63
2023-05-10T02:36:42.917Z,100817.41
2023-05-10T02:38:51.273Z,100820.69
2023-05-10T02:40:58.066Z,100817.41
2023-05-10T02:43:04.781Z,100819.94
2023-05-10T02:45:12.240Z,100823.98
2023-05-10T02:47:19.037Z,100818.46
2023-05-10T02:49:25.365Z,100823.82
2023-05-10T02:51:34.024Z,100825.31
2023-05-10T02:53:40.606Z,100821.38
2023-05-10T02:55:47.904Z,100821.45
2023-05-10T02:57:54.710Z,100817.75
2023-05-10T03:00:01.109Z,100818.86
2023-05-10T03:02:08.492Z,100819.52
2023-05-10T03:04:15.509Z,100822.3
2023-05-10T03:06:22.835Z,100822.8
2023-05-10T03:08:29.248Z,100824.44
2023-05-10T03:10:35.916Z,100824.38
2023-05-10T03:12:43.031Z,100827.88
2023-05-10T03:14:50.093Z,100829.36
2023-05-10T03:16:56.939Z,100827.16
2023-05-10T03:19:03.919Z,100827.23
2023-05-10T03:21:10.572Z,100830.88
2023-05-10T03:23:17.488Z,100829.5
2023-05-10T03:25:24.880Z,100824.58
2023-05-10T03:27:31.334Z,100824.41
2023-05-10T03:29:39.408Z,100824.09
2023-05-10T03:31:46.206Z,100826.25
2023-05-10T03:33:53.339Z,100824.31
2023-05-10T03:36:00.210Z,100825.7
2023-05-10T03:38:07.043Z,100826.77
2023-05-10T03:40:14.397Z,100829.53
2023-05-10T03:42:22.383Z,100828.11
2023-05-10T03:44:29.273Z,100826.16
2023-05-10T03:46:36.294Z,100826.15
2023-05-10T03:48:58.597Z,100823.09
2023-05-10T03:51:05.299Z,100823.11
2023-05-10T03:53:12.532Z,100826.15
2023-05-10T03:55:19.010Z,100831.37
2023-05-10T03:57:26.100Z,100831.82
2023-05-10T03:59:33.006Z,100828.19
2023-05-10T04:01:40.273Z,100824.83
2023-05-10T04:03:47.383Z,100828.59
2023-05-10T04:05:54.426Z,100828.3
2023-05-10T04:08:01.286Z,100821.77
2023-05-10T04:10:08.543Z,100818.42
2023-05-10T04:12:14.945Z,100818.91
2023-05-10T04:14:21.249Z,100815.52
2023-05-10T04:16:27.590Z,100813.88
2023-05-10T04:18:34.910Z,100818.45
2023-05-10T04:20:41.477Z,100814.89
2023-05-10T04:22:48.701Z,100818.77
2023-05-10T04:24:54.993Z,100824.88
2023-05-10T04:27:02.604Z,100822.98
2023-05-10T04:29:09.109Z,100823.4
2023-05-10T04:31:15.733Z,100830.92
2023-05-10T04:33:22.371Z,100829.44
2023-05-10T04:35:29.228Z,100824.05
2023-05-10T04:37:35.776Z,100824.09
2023-05-10T04:39:44.082Z,100823.1
2023-05-10T04:41:50.928Z,100820.84
2023-05-10T04:43:57.613Z,100817.69
2023-05-10T04:46:04.189Z,100817.48
2023-05-10T04:48:10.701Z,100816.2
2023-05-10T04:50:19.174Z,100815.84
2023-05-10T04:52:26.356Z,100808.37
2023-05-10T04:54:33.895Z,100809.2
2023-05-10T04:56:40.527Z,100805.9
2023-05-10T04:58:47.029Z,100809.45
2023-05-10T05:00:53.878Z,100806.78
2023-05-10T05:03:02.420Z,100807.08
2023-05-10T05:05:08.931Z,100811.55
2023-05-10T05:07:15.876Z,100805.97
2023-05-10T05:09:23.458Z,100804.09
2023-05-10T05:11:30.964Z,100807.06
2023-05-10T05:13:37.978Z,100801.61
2023-05-10T05:15:44.493Z,100804.74
2023-05-10T05:17:52.640Z,100802.44
2023-05-10T05:19:59.851Z,100802.2
2023-05-10T05:22:06.665Z,100806.67
2023-05-10T05:24:13.715Z,100805.6
2023-05-10T05:26:20.570Z,100804.09
2023-05-10T05:28:27.674Z,100802
2023-05-10T05:30:35.396Z,100796
2023-05-10T05:32:42.724Z,100799.77
2023-05-10T05:34:50.437Z,100797.38
2023-05-10T05:36:57.295Z,100795.35
2023-05-10T05:39:04.514Z,100798.56
2023-05-10T05:41:11.718Z,100797.98
2023-05-10T05:43:18.964Z,100796.05
2023-05-10T05:45:27.130Z,100795.05
2023-05-10T05:47:34.417Z,100792.55
2023-05-10T05:49:41.260Z,100794.34
2023-05-10T05:51:47.894Z,100799.27
2023-05-10T05:53:55.231Z,100795.55
2023-05-10T05:56:02.273Z,100792.75
2023-05-10T05:58:09.392Z,100794.41
2023-05-10T06:00:16.940Z,100796.83
2023-05-10T06:02:23.706Z,100795.7
2023-05-10T06:04:31.948Z,100797.03
2023-05-10T06:06:42.724Z,100797.32
2023-05-10T06:08:50.783Z,100792.93
2023-05-10T06:11:02.023Z,100794.93
2023-05-10T06:13:09.580Z,100793.2
2023-05-10T06:15:16.867Z,100790.63
2023-05-10T06:17:23.992Z,100794.88
2023-05-10T06:19:31.299Z,100799.69
2023-05-10T06:21:38.377Z,100801.67
2023-05-10T06:23:45.162Z,100789
2023-05-10T06:25:52.126Z,100796.88
2023-05-10T06:28:00.297Z,100797.27
2023-05-10T06:50:27.460Z,100790.02
2023-05-10T06:52:41.002Z,100791.31
2023-05-10T06:54:54.445Z,100785.36
2023-05-10T06:57:30.341Z,100785.9
2023-05-10T06:59:45.831Z,100789.72
2023-05-10T07:01:59.220Z,100783.8
2023-05-10T07:04:10.716Z,100783.83
2023-05-10T07:06:35.585Z,100785.49
2023-05-10T07:08:48.324Z,100784.86
2023-05-10T07:10:58.867Z,100781.96
2023-05-10T07:13:09.716Z,100778.93
2023-05-10T07:15:26.600Z,100782.89
2023-05-10T07:17:56.896Z,100771.64
2023-05-10T07:20:12.687Z,100771.02
2023-05-10T07:22:31.601Z,100771.08
2023-05-10T07:24:46.866Z,100772.57
2023-05-10T07:27:00.223Z,100774
2023-05-10T07:29:15.523Z,100777.27
2023-05-10T07:31:26.504Z,100776.23
2023-05-10T07:33:37.302Z,100780.66
2023-05-10T07:35:49.946Z,100776.98
2023-05-10T07:38:09.622Z,100786.7
2023-05-10T07:40:20.305Z,100782.01
2023-05-10T07:42:35.177Z,100787.31
2023-05-10T07:44:48.859Z,100779.36
2023-05-10T07:47:01.078Z,100780.46
2023-05-10T07:49:18.823Z,100776.98
2023-05-10T07:51:40.356Z,100777.16
2023-05-10T07:53:52.004Z,100772.38
2023-05-10T07:56:03.900Z,100777.88
2023-05-10T07:58:17.832Z,100763.38
2023-05-10T08:00:33.438Z,100775.73
2023-05-10T08:02:44.538Z,100768.95
2023-05-10T08:04:59.263Z,100776.03
2023-05-10T08:07:10.239Z,100759.24
2023-05-10T08:09:21.398Z,100769.41
2023-05-10T08:11:34.986Z,100771.36
2023-05-10T08:13:46.837Z,100776.42
2023-05-10T08:16:00.386Z,100771.78
2023-05-10T08:18:12.688Z,100758.28
2023-05-10T08:20:28.122Z,100763.56
2023-05-10T08:22:38.977Z,100759.95
2023-05-10T08:24:50.079Z,100760.81
2023-05-10T08:27:06.600Z,100763.03
2023-05-10T08:29:20.157Z,100757.55
2023-05-10T08:31:32.193Z,100764.23
2023-05-10T08:34:25.833Z,100758.45
2023-05-10T08:36:42.515Z,100751.16
2023-05-10T08:38:56.275Z,100754.94
2023-05-10T08:41:06.373Z,100753.35
2023-05-10T08:43:22.842Z,100755.48
2023-05-10T08:45:37.083Z,100750.98
2023-05-10T08:47:48.446Z,100753.19
2023-05-10T08:50:01.417Z,100757.31
2023-05-10T08:52:11.465Z,100762.34
2023-05-10T08:54:23.102Z,100755.77
2023-05-10T08:56:34.898Z,100749.91
2023-05-10T08:58:47.546Z,100748.48
2023-05-10T09:01:00.783Z,100759.64
2023-05-10T09:03:17.613Z,100754.53
2023-05-10T09:05:27.904Z,100748.41
2023-05-10T09:07:39.606Z,100745.5
2023-05-10T09:09:50.783Z,100753.03
2023-05-10T09:12:04.009Z,100742.66
2023-05-10T09:14:17.944Z,100737.91
2023-05-10T09:16:30.496Z,100742.63
2023-05-10T09:18:41.487Z,100745.94
2023-05-10T09:20:57.844Z,100743.33
2023-05-10T09:23:10.284Z,100728.31
2023-05-10T09:25:23.844Z,100740.76
2023-05-10T09:27:37.181Z,100742.05
2023-05-10T09:29:49.202Z,100751.17
2023-05-10T09:31:59.845Z,100745.05
2023-05-10T09:34:10.985Z,100738.61
2023-05-10T09:36:24.859Z,100730.73
2023-05-10T09:41:49.411Z,100736.57
2023-05-10T09:44:00.354Z,100732.84
2023-05-10T09:46:12.191Z,100734.36
2023-05-10T09:48:23.066Z,100734.22
2023-05-10T09:50:35.359Z,100725.95
2023-05-10T09:52:52.587Z,100728.72
2023-05-10T09:55:04.055Z,100733.66
2023-05-10T09:57:17.318Z,100730.73
2023-05-10T09:59:28.829Z,100736.82
2023-05-10T10:01:43.012Z,100732.2
2023-05-10T10:03:56.510Z,100724.3
2023-05-10T10:06:26.729Z,100722.63
2023-05-10T10:08:46.830Z,100729.44
2023-05-10T10:10:58.238Z,100726.38
2023-05-10T10:13:08.752Z,100721.23
2023-05-10T10:15:23.194Z,100709.39
2023-05-10T10:17:34.708Z,100705.41
2023-05-10T10:19:48.277Z,100711.3
2023-05-10T10:21:59.795Z,100711.03
2023-05-10T10:24:18.435Z,100702.75
2023-05-10T10:26:30.116Z,100701.77
2023-05-10T10:28:41.114Z,100690.06
2023-05-10T10:30:52.077Z,100699.44
2023-05-10T10:33:16.788Z,100701.96
2023-05-10T10:35:37.853Z,100703.59
2023-05-10T10:37:49.374Z,100695.53
2023-05-10T10:40:00.956Z,100689.58
2023-05-10T10:42:24.537Z,100694.38
2023-05-10T10:44:34.857Z,100698.09
2023-05-10T10:46:45.901Z,100689.59
2023-05-10T10:48:58.436Z,100698
2023-05-10T10:51:12.297Z,100687.09
2023-05-10T10:53:25.921Z,100674.7
2023-05-10T10:55:37.234Z,100681.53
2023-05-10T10:57:50.291Z,100683.68
2023-05-10T11:00:01.230Z,100686.45
2023-05-10T11:02:12.776Z,100680.63
2023-05-10T11:04:23.887Z,100679.63
2023-05-10T11:06:39.054Z,100682.16
2023-05-10T11:08:49.901Z,100677.59
2023-05-10T11:11:03.232Z,100680.63
2023-05-10T11:13:13.319Z,100674.92
2023-05-10T11:15:24.446Z,100678.4
2023-05-10T11:17:37.883Z,100681.88
2023-05-10T11:19:52.991Z,100672.55
2023-05-10T11:22:05.176Z,100667.52
2023-05-10T11:24:19.048Z,100673.85
2023-05-10T11:26:35.027Z,100669.63
2023-05-10T11:28:47.128Z,100671.13
2023-05-10T11:30:59.685Z,100676.47
2023-05-10T11:33:12.267Z,100669.61
2023-05-10T11:35:23.619Z,100672.24
2023-05-10T11:37:35.553Z,100660.89
2023-05-10T11:39:47.112Z,100663.15
2023-05-10T11:42:00.655Z,100661.39
2023-05-10T11:44:13.520Z,100658.36
2023-05-10T11:46:27.260Z,100659.78
2023-05-10T11:48:43.292Z,100659.71
2023-05-10T11:50:55.117Z,100662.45
2023-05-10T11:53:06.434Z,100663.73
2023-05-10T11:55:24.231Z,100651.8
2023-05-10T11:57:37.732Z,100652.13
2023-05-10T11:59:49.307Z,100655.86
2023-05-10T12:02:00.424Z,100660.55
2023-05-10T12:04:12.781Z,100651.78
2023-05-10T12:06:25.432Z,100653.46
2023-05-10T12:08:37.510Z,100659.38
2023-05-10T12:10:48.794Z,100653.59
2023-05-10T12:13:01.136Z,100649.26
2023-05-10T12:15:11.327Z,100645.95
2023-05-10T12:17:26.192Z,100651.83
2023-05-10T12:19:37.525Z,100650.21
2023-05-10T12:21:53.069Z,100647.41
2023-05-10T12:24:11.593Z,100635.16
2023-05-10T12:26:24.717Z,100639.45
2023-05-10T12:31:40.895Z,100643.67
2023-05-10T12:33:53.090Z,100641.64
2023-05-10T12:36:09.040Z,100637.66
2023-05-10T12:38:21.575Z,100632.3
2023-05-10T12:40:33.039Z,100637.34
2023-05-10T12:42:46.367Z,100638.08
2023-05-10T12:45:00.037Z,100629.86
2023-05-10T12:47:14.087Z,100629.59
2023-05-10T12:49:26.104Z,100633.62
2023-05-10T12:51:37.071Z,100637.08
2023-05-10T12:53:49.866Z,100634.75
2023-05-10T12:56:03.062Z,100630.23
2023-05-10T12:58:27.714Z,100628.53
2023-05-10T13:00:45.653Z,100633.03
2023-05-10T13:02:56.196Z,100622.28
2023-05-10T13:05:08.872Z,100623.63
2023-05-10T13:07:21.939Z,100611.31
2023-05-10T13:09:35.269Z,100623.52
2023-05-10T13:11:46.777Z,100611.14
2023-05-10T13:13:58.909Z,100620.94
2023-05-10T13:16:11.233Z,100617.67
2023-05-10T13:18:30.293Z,100618.59
2023-05-10T13:20:42.531Z,100614
2023-05-10T13:22:54.895Z,100621.48
2023-05-10T13:25:11.118Z,100616.31
2023-05-10T13:27:25.831Z,100616.13
2023-05-10T13:29:42.139Z,100612.67
2023-05-10T13:31:57.399Z,100605.85
2023-05-10T13:34:07.672Z,100614.59
2023-05-10T13:36:19.060Z,100597.76
2023-05-10T13:38:32.814Z,100611.5
2023-05-10T13:40:44.716Z,100606.45
2023-05-10T13:42:54.857Z,100605.82
2023-05-10T13:45:06.215Z,100603.28
2023-05-10T13:47:21.221Z,100601.3
2023-05-10T13:49:32.853Z,100598.86
2023-05-10T13:51:44.644Z,100597.06
2023-05-10T13:53:55.896Z,100598.66
2023-05-10T13:56:07.361Z,100595.37
2023-05-10T13:58:20.753Z,100593.64
2023-05-10T14:00:36.778Z,100591.8
2023-05-10T14:02:50.757Z,100585.27
2023-05-10T14:05:04.503Z,100581.34
2023-05-10T14:07:17.418Z,100586.58
2023-05-10T14:09:32.006Z,100582.9
2023-05-10T14:11:45.518Z,100576.48
2023-05-10T14:13:59.484Z,100580.42
2023-05-10T14:16:11.124Z,100579.13
2023-05-10T14:18:24.584Z,100576.08
2023-05-10T14:20:37.204Z,100576.31
2023-05-10T14:22:49.318Z,100582.52
2023-05-10T14:25:04.431Z,100573.27
2023-05-10T14:27:19.994Z,100573.17
2023-05-10T14:29:33.571Z,100574.8
2023-05-10T14:31:54.227Z,100576.73
2023-05-10T14:34:05.975Z,100572.14
2023-05-10T14:36:22.179Z,100577.71
2023-05-10T14:38:36.675Z,100580.06
2023-05-10T14:40:52.119Z,100588.28
2023-05-10T14:43:06.631Z,100569.94
2023-05-10T14:45:17.029Z,100569.66
2023-05-10T14:47:31.389Z,100576.59
2023-05-10T14:49:45.092Z,100572.64
2023-05-10T14:51:56.052Z,100578.31
2023-05-10T14:54:08.534Z,100569.23
2023-05-10T14:56:21.872Z,100574.3
2023-05-10T14:58:37.592Z,100570.56
2023-05-10T15:00:55.071Z,100566.98
2023-05-10T15:03:10.271Z,100572.78
2023-05-10T15:05:35.472Z,100568.73
2023-05-10T15:07:49.885Z,100572.28
2023-05-10T15:10:12.553Z,100569.4
2023-05-10T15:12:26.249Z,100569.63
2023-05-10T15:14:42.523Z,100561.36
2023-05-10T15:17:02.638Z,100558.69
2023-05-10T15:19:22.528Z,100561.33
2023-05-10T15:21:34.610Z,100565.89
2023-05-10T15:23:47.547Z,100562.16
2023-05-10T15:26:00.684Z,100556.98
2023-05-10T15:28:18.054Z,100558.98
2023-05-10T15:30:37.979Z,100560
2023-05-10T15:32:53.731Z,100556.88
2023-05-10T15:35:07.002Z,100561.22
2023-05-10T15:37:18.549Z,100553.48
2023-05-10T15:39:30.453Z,100559.45
2023-05-10T15:41:43.092Z,100553.51
2023-05-10T15:43:56.458Z,100550.88
2023-05-10T15:46:08.696Z,100554.09
2023-05-10T15:48:21.992Z,100543.78
2023-05-10T15:50:37.176Z,100550.36
2023-05-10T15:52:49.876Z,100554.8
2023-05-10T15:55:05.643Z,100553.75
2023-05-10T15:57:15.876Z,100554.86
2023-05-10T15:59:26.574Z,100559.26
2023-05-10T16:01:39.678Z,100555.94
2023-05-10T16:03:51.934Z,100560.27
2023-05-10T16:06:03.377Z,100553
2023-05-10T16:08:16.894Z,100549.91
2023-05-10T16:10:28.859Z,100547.29
2023-05-10T16:12:47.695Z,100553.17
2023-05-10T16:15:01.465Z,100552.16
2023-05-10T16:17:14.175Z,100554.15
2023-05-10T16:19:30.740Z,100554.03
2023-05-10T16:21:44.128Z,100551.27
2023-05-10T16:23:56.015Z,100553.12
2023-05-10T16:26:09.541Z,100550.2
2023-05-10T16:28:23.994Z,100555.92
2023-05-10T16:30:36.167Z,100554.08
2023-05-10T16:32:48.395Z,100555.25
2023-05-10T16:35:02.653Z,100554.38
2023-05-10T16:37:14.401Z,100559.48
2023-05-10T16:39:26.039Z,100558.27
2023-05-10T16:41:38.600Z,100557.77
2023-05-10T16:43:50.419Z,100562.21
2023-05-10T16:46:03.550Z,100561.09
2023-05-10T16:48:17.156Z,100564.69
2023-05-10T16:50:28.175Z,100566.41
2023-05-10T16:52:45.193Z,100564.02
2023-05-10T16:55:03.620Z,100561.34
2023-05-10T16:57:23.108Z,100563.52
2023-05-10T16:59:38.080Z,100569.56
2023-05-10T17:01:53.608Z,100570.38
2023-05-10T17:04:06.535Z,100567.86
2023-05-10T17:06:18.460Z,100570.16
2023-05-10T17:08:30.878Z,100568.98
2023-05-10T17:10:43.760Z,100576.55
2023-05-10T17:12:57.236Z,100576.13
2023-05-10T17:15:11.765Z,100577.48
2023-05-10T17:17:24.849Z,100582.7
2023-05-10T17:19:37.130Z,100583.03
2023-05-10T17:21:47.836Z,100585.78
2023-05-10T17:24:01.989Z,100586.27
2023-05-10T17:26:14.560Z,100589.55
2023-05-10T17:28:25.836Z,100586.48
2023-05-10T17:30:37.036Z,100593.06
2023-05-10T17:32:50.454Z,100592.83
2023-05-10T17:35:03.679Z,100595.98
2023-05-10T17:37:15.964Z,100594.07
2023-05-10T17:39:29.900Z,100597.49
2023-05-10T17:41:41.944Z,100601.25
2023-05-10T17:43:54.560Z,100600.05
2023-05-10T17:46:05.934Z,100601.2
2023-05-10T17:48:17.538Z,100602.31
2023-05-10T17:50:30.555Z,100605.19
2023-05-10T17:52:45.322Z,100606.48
2023-05-10T17:54:58.500Z,100610.06
2023-05-10T17:57:11.502Z,100607.64
2023-05-10T17:59:24.734Z,100611.36
2023-05-10T18:01:36.998Z,100617.22
2023-05-10T18:03:48.473Z,100618.2
2023-05-10T18:06:03.644Z,100621.24
2023-05-10T18:08:15.659Z,100618.89
2023-05-10T18:10:30.636Z,100620.66
2023-05-10T18:12:47.151Z,100622.16
2023-05-10T18:14:57.917Z,100621.92
2023-05-10T18:17:09.314Z,100626.98
2023-05-10T18:19:36.216Z,100626.91
2023-05-10T18:21:53.150Z,100630.95
2023-05-10T18:24:05.613Z,100632.59
2023-05-10T18:26:18.634Z,100633.98
2023-05-10T18:28:33.991Z,100635.87
2023-05-10T18:30:46.788Z,100637.71
2023-05-10T18:32:58.369Z,100644.91
2023-05-10T18:35:10.271Z,100639.97
2023-05-10T18:37:21.773Z,100643.21
2023-05-10T18:39:38.406Z,100646.38
2023-05-10T18:41:50.236Z,100649.52
2023-05-10T18:44:02.132Z,100648.56
2023-05-10T18:46:14.562Z,100647.97
2023-05-10T18:48:26.992Z,100653.48
2023-05-10T18:50:39.911Z,100654.39
2023-05-10T18:52:53.833Z,100657.13
2023-05-10T18:55:09.050Z,100657.95
2023-05-10T18:57:33.954Z,100656.3
2023-05-10T18:59:50.162Z,100662.53
2023-05-10T19:02:07.033Z,100668.02
2023-05-10T19:04:33.055Z,100665.45
2023-05-10T19:06:56.201Z,100671.2
2023-05-10T19:09:10.593Z,100670.73
2023-05-10T19:11:21.801Z,100671.58
2023-05-10T19:13:36.076Z,100673.41
2023-05-10T19:15:52.002Z,100677.34
2023-05-10T19:18:15.203Z,100672.78
2023-05-10T19:20:36.241Z,100674.03
2023-05-10T19:23:15.416Z,100677.8
2023-05-10T19:25:39.170Z,100679.34
2023-05-10T19:27:53.742Z,100679.59
2023-05-10T19:30:13.141Z,100678.9
2023-05-10T19:32:28.574Z,100683.92
2023-05-10T19:34:47.599Z,100682
2023-05-10T19:37:05.433Z,100681.03
2023-05-10T19:39:16.740Z,100681.52
2023-05-10T19:41:30.400Z,100683.98
2023-05-10T19:43:42.870Z,100682.75
2023-05-10T19:46:01.839Z,100685.95
2023-05-10T19:48:15.995Z,100689.73
2023-05-10T19:50:39.515Z,100689.31
2023-05-10T19:52:57.455Z,100692.88
2023-05-10T19:55:10.690Z,100695.39
2023-05-10T19:57:23.486Z,100692.16
2023-05-10T19:59:36.936Z,100695.05
2023-05-10T20:01:48.140Z,100694.66
2023-05-10T20:04:01.271Z,100695.8
2023-05-10T20:06:25.372Z,100692.98
2023-05-10T20:08:38.471Z,100697.23
2023-05-10T20:10:50.991Z,100700.99
2023-05-10T20:13:08.756Z,100704.34
2023-05-10T20:15:21.775Z,100702
2023-05-10T20:17:45.994Z,100701.84
2023-05-10T20:20:00.293Z,100696.68
2023-05-10T20:22:12.112Z,100697.26
2023-05-10T20:24:23.695Z,100694.84
2023-05-10T20:26:34.876Z,100701.91
2023-05-10T20:28:47.941Z,100698.04
2023-05-10T20:31:04.253Z,100698.48
2023-05-10T20:33:15.359Z,100700.22
2023-05-10T20:35:26.761Z,100698.91
2023-05-10T20:37:38.789Z,100698.99
2023-05-10T20:39:52.978Z,100701.02
2023-05-10T20:42:05.470Z,100698.75
2023-05-10T20:44:18.323Z,100703.19
2023-05-10T20:46:30.643Z,100703.16
2023-05-10T20:48:44.796Z,100706.08
2023-05-10T20:50:58.152Z,100709.62
2023-05-10T20:53:10.318Z,100711.48
2023-05-10T20:55:23.215Z,100711.34
2023-05-10T20:57:35.248Z,100711.27
2023-05-10T20:59:50.082Z,100717.55
2023-05-10T21:02:01.364Z,100712.36
2023-05-10T21:04:13.170Z,100717.38
2023-05-10T21:06:24.071Z,100715.61
2023-05-10T21:08:39.358Z,100720.13
2023-05-10T21:10:50.241Z,100720.36
2023-05-10T21:13:01.730Z,100723.39
2023-05-10T21:15:14.596Z,100722.52
2023-05-10T21:17:26.175Z,100723.66
2023-05-10T21:19:39.534Z,100728.22
2023-05-10T21:21:51.458Z,100731
2023-05-10T21:24:02.832Z,100723.23
2023-05-10T21:26:13.797Z,100720.88
2023-05-10T21:28:24.278Z,100722.19
2023-05-10T21:30:36.436Z,100723.91
2023-05-10T21:32:48.164Z,100721.44
2023-05-10T21:34:59.449Z,100722.86
2023-05-10T21:37:17.142Z,100723.88
2023-05-10T21:39:27.897Z,100723.05
2023-05-10T21:41:37.951Z,100721.33
2023-05-10T21:43:48.001Z,100724.95
2023-05-10T21:45:59.264Z,100725.79
2023-05-10T21:48:10.007Z,100728.67
2023-05-10T21:50:24.642Z,100726.63
2023-05-10T21:52:36.581Z,100729.02
2023-05-10T21:54:48.657Z,100729.47
2023-05-10T21:56:59.876Z,100731.69
2023-05-10T21:59:11.439Z,100729.8
2023-05-10T22:01:24.680Z,100727
2023-05-10T22:03:36.943Z,100731
2023-05-10T22:05:47.376Z,100730.38
2023-05-10T22:08:00.451Z,100735.77
2023-05-10T22:10:19.039Z,100737.45
2023-05-10T22:12:34.027Z,100738.25
2023-05-10T22:17:19.798Z,100742.89
2023-05-10T22:19:32.609Z,100742.79
2023-05-10T22:21:43.493Z,100748.18
2023-05-10T22:23:55.260Z,100743.28
2023-05-10T22:26:07.658Z,100748.81
2023-05-10T22:28:18.413Z,100745.48
2023-05-10T22:30:36.019Z,100748.78
2023-05-10T22:32:48.886Z,100745.35
2023-05-10T22:35:00.680Z,100746.41
2023-05-10T22:37:11.063Z,100751.02
2023-05-10T22:39:24.632Z,100748.57
2023-05-10T22:41:36.667Z,100755.47
2023-05-10T22:43:49.456Z,100753.5
2023-05-10T22:46:00.819Z,100754.45
2023-05-10T22:48:12.660Z,100755.41
2023-05-10T22:50:25.362Z,100759.09
2023-05-10T22:52:37.921Z,100756.03
2023-05-10T22:54:50.463Z,100760.03
2023-05-10T22:57:03.826Z,100755.59
2023-05-10T22:59:18.130Z,100759.77
2023-05-10T23:01:30.558Z,100760.55
2023-05-10T23:03:45.386Z,100761.13
2023-05-10T23:06:01.284Z,100759.66
2023-05-10T23:08:24.549Z,100758.34
2023-05-10T23:10:38.537Z,100764.63
2023-05-10T23:12:51.241Z,100762.45
2023-05-10T23:15:03.447Z,100761.72
2023-05-10T23:17:15.067Z,100761.45
2023-05-10T23:19:26.369Z,100764.09
2023-05-10T23:21:37.260Z,100759.69
2023-05-10T23:23:48.468Z,100762
2023-05-10T23:26:00.163Z,100765.45
2023-05-10T23:28:11.371Z,100762.2
2023-05-10T23:30:26.421Z,100758.91
2023-05-10T23:32:41.879Z,100761.3
2023-05-10T23:34:53.494Z,100761.09
2023-05-10T23:37:08.357Z,100760.17
2023-05-10T23:39:20.315Z,100762.61
2023-05-10T23:41:35.093Z,100762.22
2023-05-10T23:43:46.374Z,100764.06
2023-05-10T23:45:57.629Z,100762.63
2023-05-10T23:48:09.083Z,100769.85
2023-05-10T23:50:22.297Z,100766.59
2023-05-10T23:52:44.556Z,100765.63
2023-05-10T23:54:57.219Z,100762.69
2023-05-10T23:57:07.660Z,100764.98
2023-05-10T23:59:25.802Z,100766.78
